RYR6TX LIPX-EGSS
Flight info
| Callsign | RYR6TX |
|---|---|
| Flight time | 1h 49m |
| Altitude | 18000 |
| Route | OTZOM Y480 UPXUF L612 ADOSA/N0435F360 DCT TAGIP DCT RESIA DCT ARGAX DCT LOKTA/N0436F370 DCT TEDGO/N0439F380 DCT SUNEG L608 ULNOK DCT ADENU L608 LIRSU DCT SPI DCT KOZUF DCT IMPOH DCT SASKI L608 SUMUM Y6 TOSVA |
| Aircraft | B738/M-SDE2E3FGHIRWXY/LB1 |
Departure
| Time | 2026-05-05 17:25 |
|---|---|
| Airport | Verona Villafranca Valerio Catullo Airport (LIPX) |
Arrival
| Time | 2026-05-05 19:14 |
|---|---|
| Airport | London Stansted Airport (EGSS) |
| Time | Latitude | Longitude | Altitude | Speed | Heading |
|---|---|---|---|---|---|
| 2026-05-05 16:22 | 45.40298 | 10.90597 | 241 ft | 0 kts | 136° |
| 2026-05-05 17:12 | 45.40298 | 10.90598 | 241 ft | 0 kts | 137° |
| 2026-05-05 17:13 | 45.40298 | 10.90597 | 241 ft | 0 kts | 137° |
| 2026-05-05 17:14 | 45.40306 | 10.90587 | 241 ft | 4 kts | 133° |
| 2026-05-05 17:14 | 45.40322 | 10.90557 | 241 ft | 4 kts | 110° |
| 2026-05-05 17:14 | 45.40324 | 10.90523 | 241 ft | 4 kts | 62° |
| 2026-05-05 17:15 | 45.40319 | 10.90511 | 241 ft | 0 kts | 45° |
| 2026-05-05 17:17 | 45.40320 | 10.90511 | 241 ft | 1 kts | 45° |
| 2026-05-05 17:17 | 45.40345 | 10.90527 | 241 ft | 7 kts | 356° |
| 2026-05-05 17:18 | 45.40391 | 10.90483 | 241 ft | 9 kts | 317° |
| 2026-05-05 17:18 | 45.40413 | 10.90406 | 241 ft | 10 kts | 239° |
| 2026-05-05 17:18 | 45.40364 | 10.90328 | 241 ft | 12 kts | 228° |
| 2026-05-05 17:18 | 45.40328 | 10.90218 | 242 ft | 13 kts | 260° |
| 2026-05-05 17:19 | 45.40303 | 10.90065 | 244 ft | 21 kts | 256° |
| 2026-05-05 17:19 | 45.40341 | 10.89879 | 247 ft | 21 kts | 314° |
| 2026-05-05 17:19 | 45.40411 | 10.89753 | 246 ft | 11 kts | 266° |
| 2026-05-05 17:19 | 45.40366 | 10.89662 | 246 ft | 12 kts | 225° |
| 2026-05-05 17:20 | 45.40302 | 10.89570 | 245 ft | 14 kts | 225° |
| 2026-05-05 17:20 | 45.40231 | 10.89467 | 244 ft | 15 kts | 225° |
| 2026-05-05 17:20 | 45.40153 | 10.89352 | 243 ft | 17 kts | 226° |
| 2026-05-05 17:20 | 45.40063 | 10.89221 | 242 ft | 20 kts | 225° |
| 2026-05-05 17:21 | 45.39962 | 10.89075 | 241 ft | 22 kts | 225° |
| 2026-05-05 17:21 | 45.39853 | 10.88917 | 240 ft | 23 kts | 225° |
| 2026-05-05 17:21 | 45.39739 | 10.88756 | 239 ft | 23 kts | 225° |
| 2026-05-05 17:22 | 45.39527 | 10.88441 | 236 ft | 21 kts | 225° |
| 2026-05-05 17:22 | 45.39424 | 10.88292 | 237 ft | 21 kts | 225° |
| 2026-05-05 17:22 | 45.39323 | 10.88146 | 236 ft | 21 kts | 226° |
| 2026-05-05 17:22 | 45.39216 | 10.87990 | 233 ft | 23 kts | 226° |
| 2026-05-05 17:23 | 45.39101 | 10.87819 | 233 ft | 25 kts | 226° |
| 2026-05-05 17:23 | 45.38981 | 10.87648 | 230 ft | 24 kts | 225° |
| 2026-05-05 17:23 | 45.38880 | 10.87507 | 229 ft | 12 kts | 209° |
| 2026-05-05 17:23 | 45.38806 | 10.87553 | 229 ft | 14 kts | 136° |
| 2026-05-05 17:24 | 45.38768 | 10.87682 | 229 ft | 17 kts | 58° |
| 2026-05-05 17:24 | 45.38861 | 10.87824 | 231 ft | 33 kts | 45° |
| 2026-05-05 17:24 | 45.39191 | 10.88307 | 232 ft | 101 kts | 46° |
| 2026-05-05 17:24 | 45.39817 | 10.89221 | 247 ft | 154 kts | 47° |
| 2026-05-05 17:25 | 45.40657 | 10.90380 | 581 ft | 175 kts | 44° |
| 2026-05-05 17:25 | 45.41236 | 10.91221 | 995 ft | 181 kts | 52° |
| 2026-05-05 17:25 | 45.41571 | 10.93380 | 2135 ft | 176 kts | 108° |
| 2026-05-05 17:25 | 45.40827 | 10.94917 | 2395 ft | 205 kts | 137° |
| 2026-05-05 17:26 | 45.39628 | 10.96183 | 2594 ft | 225 kts | 144° |
| 2026-05-05 17:26 | 45.38561 | 10.97873 | 2878 ft | 237 kts | 117° |
| 2026-05-05 17:26 | 45.37825 | 11.00004 | 3323 ft | 243 kts | 117° |
| 2026-05-05 17:26 | 45.37055 | 11.02164 | 3825 ft | 247 kts | 119° |
| 2026-05-05 17:27 | 45.36265 | 11.04365 | 4357 ft | 251 kts | 119° |
| 2026-05-05 17:27 | 45.35469 | 11.06586 | 4939 ft | 254 kts | 119° |
| 2026-05-05 17:27 | 45.34666 | 11.08838 | 5499 ft | 257 kts | 119° |
| 2026-05-05 17:27 | 45.33857 | 11.11096 | 6011 ft | 262 kts | 120° |
| 2026-05-05 17:28 | 45.33006 | 11.13465 | 6382 ft | 279 kts | 120° |
| 2026-05-05 17:28 | 45.32108 | 11.15967 | 6932 ft | 288 kts | 120° |
| 2026-05-05 17:28 | 45.31511 | 11.18715 | 7639 ft | 298 kts | 94° |
| 2026-05-05 17:28 | 45.31891 | 11.21606 | 8445 ft | 303 kts | 65° |
| 2026-05-05 17:29 | 45.33130 | 11.24014 | 9208 ft | 305 kts | 39° |
| 2026-05-05 17:29 | 45.34970 | 11.25464 | 9992 ft | 305 kts | 12° |
| 2026-05-05 17:29 | 45.37084 | 11.25691 | 10440 ft | 312 kts | 347° |
| 2026-05-05 17:29 | 45.39182 | 11.24674 | 10650 ft | 326 kts | 327° |
| 2026-05-05 17:30 | 45.41044 | 11.22805 | 11219 ft | 330 kts | 316° |
| 2026-05-05 17:30 | 45.42803 | 11.20677 | 11981 ft | 333 kts | 315° |
| 2026-05-05 17:30 | 45.44587 | 11.18550 | 12801 ft | 337 kts | 316° |
| 2026-05-05 17:30 | 45.46428 | 11.16437 | 13593 ft | 342 kts | 317° |
| 2026-05-05 17:31 | 45.48315 | 11.14333 | 14322 ft | 348 kts | 320° |
| 2026-05-05 17:31 | 45.50549 | 11.12867 | 15038 ft | 364 kts | 343° |
| 2026-05-05 17:31 | 45.53112 | 11.12688 | 15796 ft | 378 kts | 4° |
| 2026-05-05 17:31 | 45.55735 | 11.13181 | 16512 ft | 381 kts | 356° |
| 2026-05-05 17:32 | 45.58310 | 11.12553 | 17126 ft | 374 kts | 332° |
| 2026-05-05 17:32 | 45.60503 | 11.10658 | 17869 ft | 366 kts | 314° |
| 2026-05-05 17:32 | 45.62134 | 11.08000 | 18554 ft | 360 kts | 298° |
| 2026-05-05 17:32 | 45.63476 | 11.04975 | 19222 ft | 362 kts | 297° |
| 2026-05-05 17:33 | 45.65022 | 11.02030 | 19894 ft | 370 kts | 307° |
| 2026-05-05 17:33 | 45.66905 | 10.99525 | 20527 ft | 379 kts | 314° |
| 2026-05-05 17:33 | 45.68966 | 10.97143 | 21153 ft | 383 kts | 316° |
| 2026-05-05 17:33 | 45.71068 | 10.94776 | 21779 ft | 387 kts | 316° |
| 2026-05-05 17:34 | 45.73192 | 10.92383 | 22402 ft | 390 kts | 316° |
| 2026-05-05 17:34 | 45.75320 | 10.89966 | 23038 ft | 392 kts | 315° |
| 2026-05-05 17:34 | 45.77458 | 10.87515 | 23587 ft | 395 kts | 315° |
| 2026-05-05 17:34 | 45.79612 | 10.85030 | 24058 ft | 398 kts | 315° |
| 2026-05-05 17:35 | 45.81771 | 10.82530 | 24574 ft | 400 kts | 315° |
| 2026-05-05 17:35 | 45.83949 | 10.80002 | 25038 ft | 404 kts | 315° |
| 2026-05-05 17:35 | 45.86142 | 10.77452 | 25493 ft | 407 kts | 315° |
| 2026-05-05 17:35 | 45.88352 | 10.74881 | 25868 ft | 412 kts | 315° |
| 2026-05-05 17:36 | 45.90583 | 10.72283 | 26337 ft | 415 kts | 315° |
| 2026-05-05 17:36 | 45.92832 | 10.69664 | 26821 ft | 417 kts | 315° |
| 2026-05-05 17:36 | 45.95077 | 10.67040 | 27253 ft | 420 kts | 314° |
| 2026-05-05 17:36 | 45.97355 | 10.64363 | 27690 ft | 423 kts | 314° |
| 2026-05-05 17:37 | 45.99641 | 10.61671 | 28138 ft | 425 kts | 314° |
| 2026-05-05 17:37 | 46.01157 | 10.59884 | 28400 ft | 426 kts | 314° |
| 2026-05-05 17:37 | 46.04212 | 10.56278 | 28889 ft | 430 kts | 314° |
| 2026-05-05 17:37 | 46.06533 | 10.53535 | 29276 ft | 433 kts | 314° |
| 2026-05-05 17:38 | 46.08866 | 10.50778 | 29653 ft | 436 kts | 314° |
| 2026-05-05 17:38 | 46.11212 | 10.48002 | 30094 ft | 436 kts | 314° |
| 2026-05-05 17:38 | 46.13553 | 10.45234 | 30601 ft | 434 kts | 314° |
| 2026-05-05 17:38 | 46.15876 | 10.42483 | 31104 ft | 431 kts | 314° |
| 2026-05-05 17:39 | 46.18196 | 10.39731 | 31553 ft | 431 kts | 314° |
| 2026-05-05 17:39 | 46.20506 | 10.36985 | 32034 ft | 429 kts | 314° |
| 2026-05-05 17:39 | 46.22031 | 10.35171 | 32319 ft | 429 kts | 314° |
| 2026-05-05 17:39 | 46.24333 | 10.32429 | 32702 ft | 429 kts | 314° |
| 2026-05-05 17:40 | 46.26639 | 10.29679 | 33088 ft | 430 kts | 314° |
| 2026-05-05 17:40 | 46.28951 | 10.26919 | 33485 ft | 429 kts | 314° |
| 2026-05-05 17:40 | 46.31262 | 10.24156 | 33894 ft | 429 kts | 314° |
| 2026-05-05 17:40 | 46.33564 | 10.21403 | 34207 ft | 429 kts | 314° |
| 2026-05-05 17:41 | 46.35831 | 10.18689 | 34572 ft | 427 kts | 314° |
| 2026-05-05 17:41 | 46.38116 | 10.15951 | 34846 ft | 428 kts | 314° |
| 2026-05-05 17:41 | 46.40410 | 10.13197 | 34978 ft | 427 kts | 314° |
| 2026-05-05 17:42 | 46.45004 | 10.07671 | 34977 ft | 430 kts | 313° |
| 2026-05-05 17:42 | 46.49574 | 10.02113 | 34971 ft | 427 kts | 312° |
| 2026-05-05 17:43 | 46.53976 | 9.96455 | 34997 ft | 424 kts | 310° |
| 2026-05-05 17:43 | 46.58384 | 9.90711 | 34973 ft | 428 kts | 310° |
| 2026-05-05 17:44 | 46.62832 | 9.84940 | 34972 ft | 430 kts | 311° |
| 2026-05-05 17:44 | 46.67311 | 9.79138 | 34959 ft | 430 kts | 311° |
| 2026-05-05 17:45 | 46.71758 | 9.73370 | 34957 ft | 430 kts | 310° |
| 2026-05-05 17:45 | 46.76231 | 9.67555 | 34922 ft | 429 kts | 310° |
| 2026-05-05 17:46 | 46.80676 | 9.61760 | 34925 ft | 428 kts | 310° |
| 2026-05-05 17:46 | 46.85113 | 9.55961 | 34900 ft | 427 kts | 310° |
| 2026-05-05 17:47 | 46.89513 | 9.50196 | 34876 ft | 426 kts | 310° |
| 2026-05-05 17:47 | 46.93925 | 9.44404 | 34887 ft | 426 kts | 310° |
| 2026-05-05 17:48 | 46.98352 | 9.38574 | 34876 ft | 429 kts | 311° |
| 2026-05-05 17:48 | 47.02858 | 9.32778 | 34861 ft | 435 kts | 318° |
| 2026-05-05 17:48 | 47.05540 | 9.30582 | 34873 ft | 446 kts | 332° |
| 2026-05-05 17:49 | 47.08503 | 9.29305 | 34860 ft | 456 kts | 346° |
| 2026-05-05 17:49 | 47.14876 | 9.28565 | 34879 ft | 460 kts | 352° |
| 2026-05-05 17:50 | 47.21277 | 9.28063 | 34873 ft | 461 kts | 351° |
| 2026-05-05 17:50 | 47.27688 | 9.27492 | 34862 ft | 461 kts | 351° |
| 2026-05-05 17:51 | 47.34039 | 9.26862 | 34862 ft | 459 kts | 351° |
| 2026-05-05 17:51 | 47.40426 | 9.26208 | 34867 ft | 459 kts | 351° |
| 2026-05-05 17:52 | 47.46821 | 9.25549 | 34872 ft | 460 kts | 352° |
| 2026-05-05 17:52 | 47.53210 | 9.24893 | 34858 ft | 460 kts | 352° |
| 2026-05-05 17:53 | 47.59563 | 9.24241 | 34863 ft | 460 kts | 352° |
| 2026-05-05 17:53 | 47.65950 | 9.23583 | 34876 ft | 459 kts | 353° |
| 2026-05-05 17:54 | 47.72340 | 9.22924 | 34854 ft | 459 kts | 353° |
| 2026-05-05 17:54 | 47.78701 | 9.22267 | 34856 ft | 458 kts | 353° |
| 2026-05-05 17:55 | 47.85022 | 9.21611 | 34856 ft | 457 kts | 353° |
| 2026-05-05 17:55 | 47.91352 | 9.20953 | 34848 ft | 455 kts | 353° |
| 2026-05-05 17:56 | 47.97675 | 9.20294 | 34848 ft | 454 kts | 353° |
| 2026-05-05 17:56 | 48.03965 | 9.19636 | 34849 ft | 453 kts | 353° |
| 2026-05-05 17:57 | 48.10259 | 9.18976 | 34864 ft | 452 kts | 354° |
| 2026-05-05 17:57 | 48.16511 | 9.18360 | 34841 ft | 452 kts | 357° |
| 2026-05-05 17:58 | 48.22790 | 9.19098 | 34835 ft | 453 kts | 6° |
| 2026-05-05 17:58 | 48.29054 | 9.20296 | 34834 ft | 453 kts | 6° |
| 2026-05-05 17:59 | 48.35282 | 9.21414 | 34837 ft | 452 kts | 6° |
| 2026-05-05 17:59 | 48.41542 | 9.22475 | 34836 ft | 452 kts | 6° |
| 2026-05-05 18:00 | 48.47802 | 9.23527 | 34829 ft | 452 kts | 6° |
| 2026-05-05 18:00 | 48.54069 | 9.24586 | 34829 ft | 452 kts | 6° |
| 2026-05-05 18:01 | 48.60342 | 9.25175 | 34829 ft | 451 kts | 353° |
| 2026-05-05 18:01 | 48.66371 | 9.23030 | 34824 ft | 447 kts | 335° |
| 2026-05-05 18:02 | 48.72047 | 9.19172 | 34828 ft | 447 kts | 333° |
| 2026-05-05 18:02 | 48.77708 | 9.15232 | 34841 ft | 448 kts | 334° |
| 2026-05-05 18:03 | 48.83413 | 9.11325 | 34833 ft | 449 kts | 334° |
| 2026-05-05 18:03 | 48.89097 | 9.07466 | 34827 ft | 451 kts | 334° |
| 2026-05-05 18:04 | 48.94833 | 9.03568 | 34822 ft | 451 kts | 334° |
| 2026-05-05 18:04 | 49.00565 | 8.99661 | 34824 ft | 452 kts | 335° |
| 2026-05-05 18:05 | 49.06075 | 8.95125 | 34799 ft | 448 kts | 319° |
| 2026-05-05 18:05 | 49.08342 | 8.91906 | 34533 ft | 442 kts | 309° |
| 2026-05-05 18:05 | 49.10208 | 8.88234 | 34301 ft | 436 kts | 303° |
| 2026-05-05 18:05 | 49.11954 | 8.84443 | 34099 ft | 436 kts | 303° |
| 2026-05-05 18:06 | 49.13692 | 8.80632 | 33901 ft | 439 kts | 303° |
| 2026-05-05 18:06 | 49.17198 | 8.72972 | 33831 ft | 440 kts | 303° |
| 2026-05-05 18:07 | 49.20725 | 8.65332 | 33814 ft | 441 kts | 303° |
| 2026-05-05 18:07 | 49.24259 | 8.57697 | 33832 ft | 444 kts | 303° |
| 2026-05-05 18:08 | 49.27842 | 8.49944 | 33831 ft | 447 kts | 303° |
| 2026-05-05 18:08 | 49.31437 | 8.42141 | 33820 ft | 448 kts | 303° |
| 2026-05-05 18:09 | 49.35027 | 8.34327 | 33818 ft | 448 kts | 303° |
| 2026-05-05 18:09 | 49.38608 | 8.26507 | 33813 ft | 447 kts | 303° |
| 2026-05-05 18:10 | 49.42164 | 8.18721 | 33815 ft | 444 kts | 303° |
| 2026-05-05 18:10 | 49.45692 | 8.10971 | 33814 ft | 442 kts | 303° |
| 2026-05-05 18:11 | 49.49203 | 8.03237 | 33826 ft | 441 kts | 303° |
| 2026-05-05 18:11 | 49.52709 | 7.95488 | 33813 ft | 441 kts | 303° |
| 2026-05-05 18:12 | 49.56218 | 7.87714 | 33806 ft | 442 kts | 303° |
| 2026-05-05 18:12 | 49.59727 | 7.79916 | 33808 ft | 443 kts | 303° |
| 2026-05-05 18:13 | 49.63241 | 7.72084 | 33816 ft | 444 kts | 303° |
| 2026-05-05 18:13 | 49.66754 | 7.64230 | 33824 ft | 446 kts | 303° |
| 2026-05-05 18:14 | 49.70251 | 7.56389 | 33814 ft | 446 kts | 303° |
| 2026-05-05 18:14 | 49.73754 | 7.48511 | 33804 ft | 447 kts | 303° |
| 2026-05-05 18:15 | 49.77268 | 7.40587 | 33812 ft | 447 kts | 303° |
| 2026-05-05 18:15 | 49.80774 | 7.32656 | 33815 ft | 446 kts | 303° |
| 2026-05-05 18:16 | 49.84275 | 7.24713 | 33834 ft | 446 kts | 303° |
| 2026-05-05 18:16 | 49.87770 | 7.16757 | 33815 ft | 447 kts | 303° |
| 2026-05-05 18:17 | 49.91262 | 7.08788 | 33803 ft | 446 kts | 303° |
| 2026-05-05 18:17 | 49.94745 | 7.00812 | 33817 ft | 446 kts | 303° |
| 2026-05-05 18:18 | 49.98219 | 6.92835 | 33809 ft | 445 kts | 302° |
| 2026-05-05 18:18 | 50.01683 | 6.84858 | 33798 ft | 445 kts | 302° |
| 2026-05-05 18:19 | 50.05140 | 6.76869 | 33814 ft | 445 kts | 302° |
| 2026-05-05 18:19 | 50.08577 | 6.68905 | 33798 ft | 446 kts | 302° |
| 2026-05-05 18:20 | 50.11874 | 6.61239 | 33803 ft | 447 kts | 302° |
| 2026-05-05 18:20 | 50.15291 | 6.53275 | 33776 ft | 448 kts | 302° |
| 2026-05-05 18:21 | 50.18753 | 6.45182 | 33788 ft | 448 kts | 302° |
| 2026-05-05 18:21 | 50.22101 | 6.36977 | 33794 ft | 448 kts | 300° |
| 2026-05-05 18:22 | 50.25382 | 6.28691 | 33785 ft | 448 kts | 300° |
| 2026-05-05 18:22 | 50.28660 | 6.20417 | 33820 ft | 447 kts | 300° |
| 2026-05-05 18:23 | 50.31939 | 6.12159 | 33801 ft | 447 kts | 300° |
| 2026-05-05 18:23 | 50.35210 | 6.03905 | 33825 ft | 446 kts | 300° |
| 2026-05-05 18:24 | 50.38470 | 5.95654 | 33827 ft | 445 kts | 300° |
| 2026-05-05 18:24 | 50.41720 | 5.87400 | 33841 ft | 445 kts | 300° |
| 2026-05-05 18:25 | 50.44415 | 5.80536 | 33836 ft | 445 kts | 300° |
| 2026-05-05 18:25 | 50.48182 | 5.70911 | 33849 ft | 445 kts | 299° |
| 2026-05-05 18:26 | 50.51419 | 5.62621 | 33840 ft | 445 kts | 299° |
| 2026-05-05 18:26 | 50.54291 | 5.55813 | 33867 ft | 446 kts | 302° |
| 2026-05-05 18:27 | 50.57856 | 5.47841 | 33844 ft | 445 kts | 303° |
| 2026-05-05 18:27 | 50.61386 | 5.39928 | 33846 ft | 443 kts | 302° |
| 2026-05-05 18:28 | 50.66627 | 5.28004 | 33852 ft | 439 kts | 302° |
| 2026-05-05 18:28 | 50.70092 | 5.20056 | 33861 ft | 438 kts | 302° |
| 2026-05-05 18:29 | 50.73522 | 5.12162 | 33875 ft | 439 kts | 302° |
| 2026-05-05 18:29 | 50.76973 | 5.04200 | 33864 ft | 439 kts | 301° |
| 2026-05-05 18:30 | 50.80414 | 4.96237 | 33866 ft | 438 kts | 301° |
| 2026-05-05 18:30 | 50.83850 | 4.88259 | 33870 ft | 438 kts | 301° |
| 2026-05-05 18:31 | 50.87272 | 4.80291 | 33873 ft | 438 kts | 301° |
| 2026-05-05 18:31 | 50.90691 | 4.72307 | 33873 ft | 438 kts | 301° |
| 2026-05-05 18:32 | 50.94077 | 4.64374 | 33888 ft | 437 kts | 301° |
| 2026-05-05 18:32 | 50.97495 | 4.56342 | 33880 ft | 435 kts | 301° |
| 2026-05-05 18:33 | 51.00847 | 4.48441 | 33882 ft | 434 kts | 301° |
| 2026-05-05 18:33 | 51.04208 | 4.40495 | 33881 ft | 433 kts | 301° |
| 2026-05-05 18:34 | 51.07560 | 4.32545 | 33883 ft | 433 kts | 301° |
| 2026-05-05 18:34 | 51.10905 | 4.24588 | 33881 ft | 433 kts | 301° |
| 2026-05-05 18:35 | 51.14248 | 4.16610 | 33880 ft | 433 kts | 301° |
| 2026-05-05 18:35 | 51.17589 | 4.08612 | 33877 ft | 433 kts | 301° |
| 2026-05-05 18:36 | 51.20466 | 4.00305 | 33881 ft | 429 kts | 289° |
| 2026-05-05 18:36 | 51.22671 | 3.91460 | 33859 ft | 429 kts | 288° |
| 2026-05-05 18:37 | 51.24846 | 3.82587 | 33861 ft | 430 kts | 288° |
| 2026-05-05 18:37 | 51.27064 | 3.73713 | 33872 ft | 431 kts | 289° |
| 2026-05-05 18:38 | 51.29306 | 3.64834 | 33873 ft | 431 kts | 289° |
| 2026-05-05 18:38 | 51.31544 | 3.55964 | 33877 ft | 430 kts | 289° |
| 2026-05-05 18:39 | 51.33775 | 3.47089 | 33878 ft | 429 kts | 289° |
| 2026-05-05 18:39 | 51.35983 | 3.38266 | 33776 ft | 424 kts | 288° |
| 2026-05-05 18:40 | 51.37070 | 3.33915 | 33487 ft | 416 kts | 288° |
| 2026-05-05 18:40 | 51.38134 | 3.29645 | 33100 ft | 411 kts | 289° |
| 2026-05-05 18:40 | 51.39185 | 3.25417 | 32772 ft | 407 kts | 288° |
| 2026-05-05 18:40 | 51.40226 | 3.21217 | 32386 ft | 403 kts | 288° |
| 2026-05-05 18:41 | 51.41254 | 3.17063 | 32033 ft | 399 kts | 289° |
| 2026-05-05 18:41 | 51.42272 | 3.12942 | 31666 ft | 396 kts | 289° |
| 2026-05-05 18:41 | 51.43279 | 3.08856 | 31310 ft | 393 kts | 288° |
| 2026-05-05 18:41 | 51.44279 | 3.04794 | 30960 ft | 390 kts | 288° |
| 2026-05-05 18:42 | 51.45271 | 3.00756 | 30614 ft | 388 kts | 289° |
| 2026-05-05 18:42 | 51.46253 | 2.96749 | 30269 ft | 385 kts | 289° |
| 2026-05-05 18:42 | 51.47231 | 2.92754 | 29908 ft | 383 kts | 288° |
| 2026-05-05 18:42 | 51.48198 | 2.88795 | 29508 ft | 380 kts | 288° |
| 2026-05-05 18:43 | 51.49158 | 2.84863 | 29155 ft | 376 kts | 288° |
| 2026-05-05 18:43 | 51.50090 | 2.81033 | 28811 ft | 373 kts | 287° |
| 2026-05-05 18:43 | 51.51028 | 2.77169 | 28457 ft | 369 kts | 287° |
| 2026-05-05 18:43 | 51.51967 | 2.73301 | 28082 ft | 365 kts | 287° |
| 2026-05-05 18:44 | 51.52886 | 2.69513 | 27730 ft | 362 kts | 287° |
| 2026-05-05 18:44 | 51.53791 | 2.65764 | 27404 ft | 359 kts | 289° |
| 2026-05-05 18:44 | 51.54689 | 2.62042 | 27048 ft | 356 kts | 288° |
| 2026-05-05 18:44 | 51.55579 | 2.58347 | 26717 ft | 353 kts | 288° |
| 2026-05-05 18:45 | 51.56460 | 2.54681 | 26367 ft | 351 kts | 289° |
| 2026-05-05 18:45 | 51.57338 | 2.51035 | 26027 ft | 348 kts | 287° |
| 2026-05-05 18:45 | 51.58204 | 2.47425 | 25692 ft | 346 kts | 287° |
| 2026-05-05 18:45 | 51.59064 | 2.43825 | 25359 ft | 343 kts | 287° |
| 2026-05-05 18:46 | 51.59917 | 2.40244 | 25053 ft | 341 kts | 289° |
| 2026-05-05 18:46 | 51.60755 | 2.36745 | 24732 ft | 338 kts | 289° |
| 2026-05-05 18:46 | 51.61593 | 2.33221 | 24412 ft | 336 kts | 289° |
| 2026-05-05 18:46 | 51.62427 | 2.29716 | 24097 ft | 334 kts | 289° |
| 2026-05-05 18:47 | 51.63251 | 2.26239 | 23769 ft | 332 kts | 289° |
| 2026-05-05 18:47 | 51.64072 | 2.22774 | 23438 ft | 330 kts | 289° |
| 2026-05-05 18:47 | 51.64886 | 2.19340 | 23049 ft | 328 kts | 290° |
| 2026-05-05 18:47 | 51.65693 | 2.15923 | 22692 ft | 326 kts | 290° |
| 2026-05-05 18:48 | 51.66495 | 2.12525 | 22366 ft | 323 kts | 290° |
| 2026-05-05 18:48 | 51.67356 | 2.09204 | 22016 ft | 321 kts | 300° |
| 2026-05-05 18:48 | 51.68826 | 2.06531 | 21705 ft | 319 kts | 321° |
| 2026-05-05 18:48 | 51.70715 | 2.04623 | 21361 ft | 322 kts | 331° |
| 2026-05-05 18:49 | 51.72723 | 2.02941 | 21001 ft | 328 kts | 332° |
| 2026-05-05 18:49 | 51.74774 | 2.01267 | 20631 ft | 332 kts | 333° |
| 2026-05-05 18:49 | 51.76837 | 1.99567 | 20257 ft | 333 kts | 332° |
| 2026-05-05 18:49 | 51.78902 | 1.97841 | 19887 ft | 335 kts | 332° |
| 2026-05-05 18:50 | 51.80965 | 1.96096 | 19516 ft | 334 kts | 332° |
| 2026-05-05 18:50 | 51.83013 | 1.94351 | 19154 ft | 333 kts | 332° |
| 2026-05-05 18:50 | 51.85058 | 1.92602 | 18790 ft | 331 kts | 332° |
| 2026-05-05 18:50 | 51.87062 | 1.90885 | 18434 ft | 330 kts | 333° |
| 2026-05-05 18:51 | 51.89056 | 1.89050 | 18030 ft | 329 kts | 323° |
| 2026-05-05 18:51 | 51.90574 | 1.86324 | 17712 ft | 325 kts | 302° |
| 2026-05-05 18:51 | 51.91692 | 1.83179 | 17423 ft | 320 kts | 298° |
| 2026-05-05 18:51 | 51.92723 | 1.80003 | 17129 ft | 316 kts | 297° |
| 2026-05-05 18:52 | 51.93727 | 1.76855 | 16850 ft | 313 kts | 297° |
| 2026-05-05 18:52 | 51.94725 | 1.73736 | 16577 ft | 310 kts | 297° |
| 2026-05-05 18:52 | 51.95720 | 1.70651 | 16308 ft | 307 kts | 297° |
| 2026-05-05 18:52 | 51.96713 | 1.67594 | 16041 ft | 305 kts | 298° |
| 2026-05-05 18:53 | 51.97701 | 1.64561 | 15779 ft | 303 kts | 298° |
| 2026-05-05 18:53 | 51.98694 | 1.61522 | 15520 ft | 305 kts | 298° |
| 2026-05-05 18:53 | 51.99689 | 1.58480 | 15259 ft | 306 kts | 298° |
| 2026-05-05 18:53 | 52.00690 | 1.55419 | 14994 ft | 307 kts | 298° |
| 2026-05-05 18:54 | 52.01693 | 1.52348 | 14722 ft | 307 kts | 298° |
| 2026-05-05 18:54 | 52.02693 | 1.49285 | 14454 ft | 307 kts | 297° |
| 2026-05-05 18:54 | 52.03681 | 1.46255 | 14189 ft | 306 kts | 297° |
| 2026-05-05 18:54 | 52.04670 | 1.43218 | 13920 ft | 302 kts | 297° |
| 2026-05-05 18:55 | 52.05644 | 1.40224 | 13638 ft | 298 kts | 297° |
| 2026-05-05 18:55 | 52.06606 | 1.37264 | 13345 ft | 294 kts | 297° |
| 2026-05-05 18:55 | 52.07554 | 1.34343 | 13076 ft | 290 kts | 297° |
| 2026-05-05 18:55 | 52.08489 | 1.31461 | 12819 ft | 287 kts | 297° |
| 2026-05-05 18:56 | 52.09415 | 1.28605 | 12569 ft | 284 kts | 297° |
| 2026-05-05 18:56 | 52.10332 | 1.25769 | 12321 ft | 282 kts | 297° |
| 2026-05-05 18:56 | 52.11225 | 1.22951 | 12072 ft | 280 kts | 293° |
| 2026-05-05 18:56 | 52.11569 | 1.19857 | 11838 ft | 279 kts | 268° |
| 2026-05-05 18:57 | 52.11279 | 1.16773 | 11663 ft | 280 kts | 258° |
| 2026-05-05 18:57 | 52.10781 | 1.13697 | 11466 ft | 282 kts | 256° |
| 2026-05-05 18:57 | 52.10237 | 1.10606 | 11265 ft | 285 kts | 256° |
| 2026-05-05 18:57 | 52.09687 | 1.07489 | 11052 ft | 287 kts | 255° |
| 2026-05-05 18:58 | 52.09141 | 1.04356 | 10848 ft | 288 kts | 256° |
| 2026-05-05 18:58 | 52.08602 | 1.01221 | 10644 ft | 288 kts | 256° |
| 2026-05-05 18:58 | 52.08066 | 0.98076 | 10439 ft | 289 kts | 256° |
| 2026-05-05 18:58 | 52.07532 | 0.94928 | 10233 ft | 288 kts | 256° |
| 2026-05-05 18:59 | 52.07006 | 0.91814 | 10046 ft | 283 kts | 256° |
| 2026-05-05 18:59 | 52.06490 | 0.88754 | 9841 ft | 278 kts | 256° |
| 2026-05-05 18:59 | 52.05983 | 0.85752 | 9625 ft | 273 kts | 257° |
| 2026-05-05 18:59 | 52.05490 | 0.82828 | 9428 ft | 271 kts | 257° |
| 2026-05-05 19:00 | 52.04991 | 0.79870 | 9240 ft | 272 kts | 257° |
| 2026-05-05 19:00 | 52.04491 | 0.76907 | 9041 ft | 272 kts | 257° |
| 2026-05-05 19:00 | 52.03990 | 0.73949 | 8984 ft | 269 kts | 256° |
| 2026-05-05 19:00 | 52.03496 | 0.71029 | 8812 ft | 271 kts | 256° |
| 2026-05-05 19:01 | 52.02989 | 0.68039 | 8547 ft | 274 kts | 256° |
| 2026-05-05 19:01 | 52.02482 | 0.65069 | 8309 ft | 270 kts | 256° |
| 2026-05-05 19:01 | 52.01985 | 0.62160 | 8114 ft | 266 kts | 256° |
| 2026-05-05 19:01 | 52.01521 | 0.59277 | 7799 ft | 264 kts | 263° |
| 2026-05-05 19:02 | 52.01424 | 0.56299 | 7413 ft | 265 kts | 271° |
| 2026-05-05 19:02 | 52.01398 | 0.53289 | 6957 ft | 270 kts | 271° |
| 2026-05-05 19:02 | 52.01367 | 0.50224 | 6518 ft | 274 kts | 271° |
| 2026-05-05 19:02 | 52.01333 | 0.47109 | 6093 ft | 276 kts | 271° |
| 2026-05-05 19:03 | 52.01302 | 0.44044 | 6003 ft | 266 kts | 271° |
| 2026-05-05 19:03 | 52.01270 | 0.41119 | 5981 ft | 253 kts | 271° |
| 2026-05-05 19:03 | 52.01236 | 0.38330 | 5986 ft | 241 kts | 271° |
| 2026-05-05 19:03 | 52.01200 | 0.35675 | 5970 ft | 229 kts | 271° |
| 2026-05-05 19:04 | 52.01163 | 0.33197 | 5985 ft | 217 kts | 271° |
| 2026-05-05 19:04 | 52.01123 | 0.30815 | 5969 ft | 206 kts | 271° |
| 2026-05-05 19:04 | 52.01080 | 0.28507 | 6002 ft | 204 kts | 271° |
| 2026-05-05 19:04 | 52.01001 | 0.26176 | 5994 ft | 205 kts | 261° |
| 2026-05-05 19:05 | 52.00359 | 0.24149 | 5992 ft | 210 kts | 226° |
| 2026-05-05 19:05 | 51.99231 | 0.22641 | 6003 ft | 211 kts | 221° |
| 2026-05-05 19:05 | 51.98074 | 0.21136 | 6006 ft | 210 kts | 221° |
| 2026-05-05 19:05 | 51.96927 | 0.19642 | 5892 ft | 217 kts | 221° |
| 2026-05-05 19:06 | 51.95730 | 0.18073 | 5479 ft | 228 kts | 221° |
| 2026-05-05 19:06 | 51.94490 | 0.16439 | 5105 ft | 233 kts | 221° |
| 2026-05-05 19:06 | 51.93221 | 0.14760 | 4737 ft | 238 kts | 221° |
| 2026-05-05 19:06 | 51.91929 | 0.13043 | 4351 ft | 242 kts | 221° |
| 2026-05-05 19:07 | 51.90621 | 0.11287 | 4009 ft | 245 kts | 220° |
| 2026-05-05 19:07 | 51.89736 | 0.10086 | 3803 ft | 246 kts | 220° |
| 2026-05-05 19:07 | 51.87996 | 0.07703 | 3398 ft | 248 kts | 220° |
| 2026-05-05 19:07 | 51.86681 | 0.05880 | 3093 ft | 250 kts | 220° |
| 2026-05-05 19:08 | 51.85364 | 0.04034 | 2767 ft | 251 kts | 221° |
| 2026-05-05 19:08 | 51.84056 | 0.02194 | 2462 ft | 246 kts | 220° |
| 2026-05-05 19:08 | 51.82784 | 0.00414 | 2131 ft | 236 kts | 217° |
| 2026-05-05 19:08 | 51.81352 | -0.00570 | 2033 ft | 215 kts | 182° |
| 2026-05-05 19:09 | 51.79991 | -0.00147 | 2029 ft | 189 kts | 153° |
| 2026-05-05 19:09 | 51.78943 | 0.00907 | 1967 ft | 172 kts | 126° |
| 2026-05-05 19:09 | 51.78580 | 0.02666 | 2002 ft | 164 kts | 84° |
| 2026-05-05 19:09 | 51.78774 | 0.04387 | 2007 ft | 149 kts | 76° |
| 2026-05-05 19:10 | 51.78998 | 0.06018 | 1992 ft | 147 kts | 76° |
| 2026-05-05 19:10 | 51.79229 | 0.07628 | 1999 ft | 147 kts | 76° |
| 2026-05-05 19:10 | 51.79464 | 0.09220 | 1986 ft | 143 kts | 73° |
| 2026-05-05 19:10 | 51.79979 | 0.10533 | 2013 ft | 140 kts | 41° |
| 2026-05-05 19:11 | 51.80705 | 0.11630 | 2022 ft | 146 kts | 47° |
| 2026-05-05 19:11 | 51.81415 | 0.12769 | 2026 ft | 139 kts | 45° |
| 2026-05-05 19:11 | 51.82109 | 0.13833 | 1928 ft | 133 kts | 45° |
| 2026-05-05 19:11 | 51.82754 | 0.14810 | 1750 ft | 129 kts | 43° |
| 2026-05-05 19:12 | 51.83426 | 0.15797 | 1668 ft | 131 kts | 43° |
| 2026-05-05 19:12 | 51.83874 | 0.16466 | 1470 ft | 134 kts | 44° |
| 2026-05-05 19:12 | 51.84537 | 0.17495 | 1270 ft | 131 kts | 45° |
| 2026-05-05 19:12 | 51.85203 | 0.18489 | 1051 ft | 131 kts | 43° |
| 2026-05-05 19:13 | 51.85876 | 0.19516 | 855 ft | 133 kts | 43° |
| 2026-05-05 19:13 | 51.86535 | 0.20514 | 695 ft | 129 kts | 43° |
| 2026-05-05 19:13 | 51.87174 | 0.21488 | 514 ft | 127 kts | 42° |
| 2026-05-05 19:13 | 51.87805 | 0.22431 | 361 ft | 120 kts | 43° |
| 2026-05-05 19:14 | 51.88342 | 0.23241 | 332 ft | 86 kts | 43° |
| 2026-05-05 19:14 | 51.88673 | 0.23739 | 330 ft | 44 kts | 43° |
| 2026-05-05 19:14 | 51.88831 | 0.24040 | 334 ft | 22 kts | 63° |
| 2026-05-05 19:14 | 51.88886 | 0.24263 | 341 ft | 21 kts | 72° |
| 2026-05-05 19:15 | 51.88913 | 0.24406 | 344 ft | 10 kts | 73° |
| 2026-05-05 19:15 | 51.88914 | 0.24496 | 349 ft | 1 kts | 116° |
| 2026-05-05 19:15 | 51.88908 | 0.24514 | 352 ft | 3 kts | 114° |
| 2026-05-05 19:15 | 51.88915 | 0.24576 | 344 ft | 9 kts | 66° |
| 2026-05-05 19:16 | 51.88972 | 0.24675 | 350 ft | 15 kts | 41° |
| 2026-05-05 19:16 | 51.89024 | 0.24768 | 345 ft | 7 kts | 65° |
| 2026-05-05 19:16 | 51.89018 | 0.24843 | 345 ft | 7 kts | 126° |
| 2026-05-05 19:16 | 51.88986 | 0.24914 | 346 ft | 10 kts | 117° |
| 2026-05-05 19:17 | 51.89004 | 0.25017 | 346 ft | 10 kts | 44° |
| 2026-05-05 19:17 | 51.89055 | 0.25092 | 345 ft | 10 kts | 42° |
| 2026-05-05 19:17 | 51.89104 | 0.25167 | 348 ft | 10 kts | 44° |
| 2026-05-05 19:17 | 51.89146 | 0.25264 | 345 ft | 11 kts | 71° |
| 2026-05-05 19:18 | 51.89147 | 0.25385 | 336 ft | 11 kts | 102° |
| 2026-05-05 19:18 | 51.89092 | 0.25463 | 336 ft | 11 kts | 147° |
| 2026-05-05 19:18 | 51.89038 | 0.25543 | 338 ft | 10 kts | 117° |
| 2026-05-05 19:18 | 51.89055 | 0.25605 | 353 ft | 3 kts | 45° |
| 2026-05-05 19:19 | 51.89065 | 0.25621 | 345 ft | 0 kts | 43° |